Time;durP1;ratioP1;P1;durP2;ratioP2;P2;SDS_P1;SDS_P2;PMS_P1;PMS_P2;Temp;Humidity;BMP_temperature;BMP_pressure;BME280_temperature;BME280_humidity;BME280_pressure;Samples;Min_cycle;Max_cycle;Signal;HPM_P1;HPM_P2
2023/07/24 00:01:06;208670.00;0.70;360.85;0.00;0.00;0.62;;;;;24.30;1.00;;;;;;2271717;61;1573;-87
2023/07/24 00:03:37;156823.00;0.52;271.57;0.00;0.00;0.62;;;;;24.30;1.00;;;;;;2271730;61;2023;-87
2023/07/24 00:06:12;351574.00;1.17;606.57;0.00;0.00;0.62;;;;;24.50;1.00;;;;;;2271866;61;1058;-87
2023/07/24 00:08:44;226534.00;0.76;391.59;73648.00;0.25;128.06;;;;;24.20;1.00;;;;;;2271507;61;1348;-87
2023/07/24 00:11:13;137122.00;0.46;237.61;0.00;0.00;0.62;;;;;24.10;1.00;;;;;;2271668;61;2250;-87
2023/07/24 00:13:44;250196.00;0.83;432.29;0.00;0.00;0.62;;;;;24.20;1.00;;;;;;2271575;61;1211;-88
2023/07/24 00:16:22;142017.00;0.47;246.05;0.00;0.00;0.62;;;;;24.00;1.00;;;;;;2271675;61;1662;-88
2023/07/24 00:19:04;223363.00;0.74;386.13;22394.00;0.07;39.42;;;;;23.70;1.00;;;;;;2271720;61;1116;-87
2023/07/24 00:21:43;358658.00;1.20;618.74;64654.00;0.22;112.52;;;;;23.40;1.00;;;;;;2271660;61;1362;-88
2023/07/24 00:24:10;571105.00;1.90;984.35;67817.00;0.23;117.99;;;;;23.40;1.00;;;;;;2271620;61;1752;-88
2023/07/24 00:26:42;481876.00;1.61;830.63;71195.00;0.24;123.83;;;;;23.30;1.00;;;;;;2271721;61;1415;-89
2023/07/24 00:29:12;358453.00;1.19;618.39;64138.00;0.21;111.63;;;;;23.30;1.00;;;;;;2271632;61;1093;-89
2023/07/24 00:31:49;366022.00;1.22;631.40;73300.00;0.24;127.46;;;;;23.30;1.00;;;;;;2271585;61;1411;-87
2023/07/24 00:34:18;522819.00;1.74;901.12;62605.00;0.21;108.98;;;;;23.40;1.00;;;;;;2271656;61;1523;-87
2023/07/24 00:36:53;344439.00;1.15;594.30;72416.00;0.24;125.94;;;;;23.40;1.00;;;;;;2271612;61;988;-88
2023/07/24 00:39:23;281692.00;0.94;486.45;71650.00;0.24;124.61;;;;;23.40;1.00;;;;;;2271474;61;1045;-88
2023/07/24 00:41:54;841197.00;2.80;1453.07;67117.00;0.22;116.78;;;;;23.30;1.00;;;;;;2271470;61;2009;-86
2023/07/24 00:44:45;783829.00;2.61;1352.94;88857.00;0.30;154.33;;;;;23.30;1.00;;;;;;2271864;61;1529;-87
2023/07/24 00:49:57;1402387.00;4.67;2460.75;0.00;0.00;0.62;;;;;23.40;1.00;;;;;;825993;56;3569;-90
2023/07/24 00:52:35;863587.00;2.88;1492.25;0.00;0.00;0.62;;;;;23.40;1.00;;;;;;2275990;60;1627;-88
2023/07/24 00:55:04;350567.00;1.17;604.84;60511.00;0.20;105.36;;;;;23.40;1.00;;;;;;2276169;60;1041;-88
2023/07/24 00:57:46;337823.00;1.13;582.93;42938.00;0.14;74.97;;;;;23.40;1.00;;;;;;2276083;60;1575;-88
2023/07/24 01:02:46;1489844.00;4.97;2624.02;0.00;0.00;0.62;;;;;23.30;1.00;;;;;;2273936;61;1911;-85
2023/07/24 01:10:40;1016028.00;3.39;1760.88;0.00;0.00;0.62;;;;;23.00;1.00;;;;;;2282146;60;1399;-88
2023/07/24 01:13:20;355408.00;1.18;613.16;110185.00;0.37;191.15;;;;;22.90;1.00;;;;;;2280320;60;1348;-89
2023/07/24 01:16:03;276452.00;0.92;477.44;0.00;0.00;0.62;;;;;23.10;1.00;;;;;;2280304;60;1622;-90
2023/07/24 01:18:37;230826.00;0.77;398.97;60652.00;0.20;105.60;;;;;23.10;1.00;;;;;;2280172;60;1633;-88
2023/07/24 01:21:24;260603.00;0.87;450.19;16356.00;0.05;28.96;;;;;23.10;1.00;;;;;;2280351;60;1144;-88
2023/07/24 01:24:00;170612.00;0.57;295.32;0.00;0.00;0.62;;;;;23.30;1.00;;;;;;2280322;60;2386;-87
2023/07/24 01:26:37;174692.00;0.58;302.35;0.00;0.00;0.62;;;;;23.10;1.00;;;;;;2280203;60;921;-88
2023/07/24 01:29:05;257844.00;0.86;445.44;0.00;0.00;0.62;;;;;23.10;1.00;;;;;;2280232;60;1621;-88
2023/07/24 01:31:41;228931.00;0.76;395.71;0.00;0.00;0.62;;;;;22.80;1.00;;;;;;2280150;60;1591;-87
2023/07/24 01:34:08;278425.00;0.93;480.83;65344.00;0.22;113.71;;;;;22.80;1.00;;;;;;2280156;60;1004;-88
2023/07/24 01:36:38;541460.00;1.80;933.24;58548.00;0.20;101.97;;;;;22.90;1.00;;;;;;2279728;60;1549;-86
2023/07/24 01:39:09;344799.00;1.15;594.92;63344.00;0.21;110.26;;;;;22.90;1.00;;;;;;2280176;60;1003;-88
2023/07/24 01:44:08;1560305.00;5.20;2757.12;68840.00;0.23;119.76;;;;;22.70;1.00;;;;;;2281915;60;1966;-90
2023/07/24 01:49:06;1456789.00;4.86;2562.07;60736.00;0.20;105.75;;;;;22.60;1.00;;;;;;2281795;60;1406;-86
2023/07/24 01:51:35;594434.00;1.98;1024.61;130269.00;0.43;225.79;;;;;22.20;1.00;;;;;;2280250;60;1302;-88
2023/07/24 01:54:08;364205.00;1.21;628.28;73541.00;0.25;127.88;;;;;22.20;1.00;;;;;;2280101;60;1706;-88
2023/07/24 01:56:41;564272.00;1.88;972.57;191903.00;0.64;331.98;;;;;22.50;1.00;;;;;;2280144;60;1109;-87
2023/07/24 01:59:19;1005435.00;3.35;1742.10;129760.00;0.43;224.92;;;;;22.70;1.00;;;;;;2280242;60;974;-88
2023/07/24 02:01:50;760478.00;2.53;1312.28;47368.00;0.16;82.63;;;;;22.60;1.00;;;;;;2280096;60;1494;-88
2023/07/24 02:04:21;886961.00;2.96;1533.23;24918.00;0.08;43.79;;;;;22.40;1.00;;;;;;2280250;60;2005;-87
2023/07/24 02:06:51;940904.00;3.14;1628.08;81703.00;0.27;141.98;;;;;22.50;1.00;;;;;;2279999;60;1462;-90
2023/07/24 02:09:22;1044122.00;3.48;1810.78;79114.00;0.26;137.51;;;;;22.50;1.00;;;;;;2280235;60;1580;-87
2023/07/24 02:11:51;631974.00;2.11;1089.46;4715.00;0.02;8.79;;;;;22.20;1.00;;;;;;2280046;60;1474;-87
2023/07/24 02:14:38;764441.00;2.55;1319.18;48128.00;0.16;83.95;;;;;21.90;1.00;;;;;;2280155;60;1493;-88
2023/07/24 02:17:17;309475.00;1.03;534.21;17493.00;0.06;30.93;;;;;22.00;1.00;;;;;;2280193;60;1593;-88
2023/07/24 02:19:44;497216.00;1.66;857.03;100380.00;0.33;174.23;;;;;22.30;1.00;;;;;;2280114;60;1499;-87
2023/07/24 02:22:17;230665.00;0.77;398.69;0.00;0.00;0.62;;;;;22.00;1.00;;;;;;2279937;60;1934;-89
2023/07/24 02:24:50;226555.00;0.76;391.62;40561.00;0.14;70.86;;;;;21.80;1.00;;;;;;2280258;60;930;-88
2023/07/24 02:27:27;126038.00;0.42;218.50;0.00;0.00;0.62;;;;;21.60;1.00;;;;;;2280170;60;1427;-88
2023/07/24 02:30:17;167099.00;0.56;289.27;0.00;0.00;0.62;;;;;21.50;1.00;;;;;;2280265;60;1015;-87
2023/07/24 02:32:48;189986.00;0.63;328.68;0.00;0.00;0.62;;;;;21.60;1.00;;;;;;2280107;60;1590;-89
2023/07/24 02:35:20;163311.00;0.54;282.74;0.00;0.00;0.62;;;;;21.60;1.00;;;;;;2295115;40;3638;-90
2023/07/24 02:37:51;198299.00;0.66;343.00;0.00;0.00;0.62;;;;;21.80;1.00;;;;;;2280210;60;1596;-87
2023/07/24 02:40:28;422173.00;1.41;727.93;0.00;0.00;0.62;;;;;21.80;1.00;;;;;;2280050;60;1467;-89
2023/07/24 02:42:59;280867.00;0.94;485.03;0.00;0.00;0.62;;;;;21.80;1.00;;;;;;2280063;60;1917;-87
2023/07/24 02:45:27;133356.00;0.44;231.12;0.00;0.00;0.62;;;;;21.80;1.00;;;;;;2280211;60;1592;-88
2023/07/24 02:48:00;334899.00;1.12;577.91;0.00;0.00;0.62;;;;;21.80;1.00;;;;;;2280155;60;1640;-87
2023/07/24 02:50:31;85825.00;0.29;149.10;61001.00;0.20;106.21;;;;;21.50;1.00;;;;;;2280217;60;1047;-86
2023/07/24 02:53:00;121626288.00;405.42;72887464.00;64121.00;0.21;111.60;;;;;21.20;1.00;;;;;;2280181;60;1457;-87
2023/07/24 02:55:30;615646.00;2.05;1061.24;153335.00;0.51;265.55;;;;;21.10;1.00;;;;;;2280167;60;1054;-88
2023/07/24 02:58:00;450407.00;1.50;776.48;61136.00;0.20;106.44;;;;;21.30;1.00;;;;;;2280182;60;1055;-87
2023/07/24 03:00:32;493712.00;1.65;851.00;82653.00;0.28;143.62;;;;;21.30;1.00;;;;;;2279971;60;1542;-88
2023/07/24 03:03:02;701062.00;2.34;1209.08;59257.00;0.20;103.19;;;;;21.20;1.00;;;;;;2280421;60;2008;-89
2023/07/24 03:05:34;450771.00;1.50;777.11;82130.00;0.27;142.72;;;;;21.20;1.00;;;;;;2280345;60;1572;-88
2023/07/24 03:08:02;424000.00;1.41;731.07;66524.00;0.22;115.75;;;;;21.40;1.00;;;;;;2280165;60;1609;-87
2023/07/24 03:10:32;473984.00;1.58;817.04;65435.00;0.22;113.87;;;;;21.30;1.00;;;;;;2280349;60;1518;-87
2023/07/24 03:13:02;525504.00;1.75;905.75;136303.00;0.45;236.20;;;;;21.50;1.00;;;;;;2280246;60;1554;-88
2023/07/24 03:15:38;370574.00;1.24;639.22;66465.00;0.22;115.65;;;;;21.50;1.00;;;;;;2282214;55;3789;-87
2023/07/24 03:18:19;1410863.00;4.70;2476.49;188450.00;0.63;326.04;;;;;21.30;1.00;;;;;;2280340;60;1578;-87
2023/07/24 03:20:53;921711.00;3.07;1594.28;32120.00;0.11;56.25;;;;;21.40;1.00;;;;;;2280356;60;1024;-88
2023/07/24 03:23:23;1023311.00;3.41;1773.80;37545.00;0.13;65.64;;;;;21.50;1.00;;;;;;2280315;60;1907;-87
2023/07/24 03:28:53;336005.00;1.12;579.81;8619.00;0.03;15.56;;;;;21.10;1.00;;;;;;2280052;60;1508;-88
2023/07/24 03:31:30;256373.00;0.85;442.91;0.00;0.00;0.62;;;;;21.00;1.00;;;;;;2280237;60;1533;-87
2023/07/24 03:34:06;284879.00;0.95;491.93;13087.00;0.04;23.30;;;;;21.10;1.00;;;;;;2280267;60;1541;-86
2023/07/24 03:36:42;190648.00;0.64;329.82;0.00;0.00;0.62;;;;;21.20;1.00;;;;;;2280380;60;1072;-87
2023/07/24 03:39:16;229790.00;0.77;397.19;2651.00;0.01;5.21;;;;;21.00;1.00;;;;;;2280241;60;1461;-88
2023/07/24 03:41:45;224965.00;0.75;388.89;0.00;0.00;0.62;;;;;20.90;1.00;;;;;;2280231;60;1676;-88
2023/07/24 03:44:17;297799.00;0.99;514.14;0.00;0.00;0.62;;;;;20.80;1.00;;;;;;2280113;60;2010;-87
2023/07/24 03:49:23;1251896.00;4.17;2184.33;0.00;0.00;0.62;;;;;20.40;1.00;;;;;;2281991;60;1331;-89
2023/07/24 03:51:50;130864.00;0.44;226.82;0.00;0.00;0.62;;;;;20.50;1.00;;;;;;2280242;60;1407;-87
2023/07/24 03:54:26;184906.00;0.62;319.94;0.00;0.00;0.62;;;;;20.60;1.00;;;;;;2280167;60;1011;-89
2023/07/24 03:57:05;206558.00;0.69;357.21;0.00;0.00;0.62;;;;;20.80;1.00;;;;;;2280153;60;1449;-88
2023/07/24 03:59:57;220268.00;0.73;380.80;0.00;0.00;0.62;;;;;20.60;1.00;;;;;;2280106;60;1593;-87
2023/07/24 04:02:35;193733.00;0.65;335.14;0.00;0.00;0.62;;;;;20.70;1.00;;;;;;2280158;60;1458;-87
2023/07/24 04:05:05;385474.00;1.28;664.83;72996.00;0.24;126.94;;;;;20.90;1.00;;;;;;2280226;60;1429;-88
2023/07/24 04:07:43;556501.00;1.86;959.17;70197.00;0.23;122.10;;;;;21.00;1.00;;;;;;2280169;60;1498;-88
2023/07/24 04:10:10;465855.00;1.55;803.06;88847.00;0.30;154.32;;;;;21.30;1.00;;;;;;2280158;60;1011;-89
2023/07/24 04:12:37;491531.00;1.64;847.24;109898.00;0.37;190.65;;;;;21.50;1.00;;;;;;2280065;60;1492;-88
2023/07/24 04:15:13;282521.00;0.94;487.87;66660.00;0.22;115.99;;;;;21.30;1.00;;;;;;2280127;60;1050;-88
2023/07/24 04:17:52;475732.00;1.59;820.05;75862.00;0.25;131.89;;;;;21.30;1.00;;;;;;2280108;60;1418;-88
2023/07/24 04:20:32;1068159.00;3.56;1853.57;69492.00;0.23;120.88;;;;;21.30;1.00;;;;;;2280758;60;1626;-87
2023/07/24 04:23:04;841778.00;2.81;1454.08;19735.00;0.07;34.81;;;;;21.30;1.00;;;;;;2280889;60;2012;-88
2023/07/24 04:25:39;818861.00;2.73;1414.04;79468.00;0.26;138.12;;;;;21.70;1.00;;;;;;2280846;60;1629;-88
2023/07/24 04:28:12;1381735.00;4.61;2422.49;109526.00;0.37;190.01;;;;;21.90;1.00;;;;;;2280708;60;1655;-88
2023/07/24 04:30:48;696362.00;2.32;1200.93;23715.00;0.08;41.70;;;;;21.70;1.00;;;;;;2280831;60;1644;-87
2023/07/24 04:33:39;965401.00;3.22;1671.29;61130.00;0.20;106.43;;;;;21.50;1.00;;;;;;2291340;55;3770;-89
2023/07/24 04:36:13;878478.00;2.93;1518.35;0.00;0.00;0.62;;;;;21.50;1.00;;;;;;2280399;60;2171;-88
2023/07/24 04:38:47;202860.00;0.68;350.85;0.00;0.00;0.62;;;;;21.60;1.00;;;;;;2280728;60;1773;-86
2023/07/24 04:44:15;341761.00;1.14;589.70;64714.00;0.22;112.63;;;;;21.80;1.00;;;;;;2276606;60;1923;-88
2023/07/24 04:46:42;285864.00;0.95;493.62;0.00;0.00;0.62;;;;;22.00;1.00;;;;;;2276710;60;1582;-88
2023/07/24 04:51:44;1635996.00;5.45;2901.73;198302.00;0.66;343.00;;;;;22.40;1.00;;;;;;2282247;60;1273;-88
2023/07/24 04:54:13;160254.00;0.53;277.48;0.00;0.00;0.62;;;;;22.30;1.00;;;;;;2280838;60;1112;-88
2023/07/24 04:56:41;207909.00;0.69;359.54;0.00;0.00;0.62;;;;;22.00;1.00;;;;;;2280760;60;1593;-88
2023/07/24 04:59:22;133234.00;0.44;230.91;0.00;0.00;0.62;;;;;21.90;1.00;;;;;;2280788;60;1529;-88
2023/07/24 05:01:50;275124.00;0.92;475.15;0.00;0.00;0.62;;;;;21.80;1.00;;;;;;2280639;60;1434;-88
2023/07/24 05:04:20;285166.00;0.95;492.42;20924.00;0.07;36.87;;;;;21.80;1.00;;;;;;2280584;60;1988;-87
2023/07/24 05:07:01;260008.00;0.87;449.16;0.00;0.00;0.62;;;;;21.90;1.00;;;;;;2280696;60;1515;-85
2023/07/24 05:09:31;310329.00;1.03;535.68;0.00;0.00;0.62;;;;;21.70;1.00;;;;;;2280707;60;1512;-87
2023/07/24 05:12:01;231473.00;0.77;400.08;0.00;0.00;0.62;;;;;21.50;1.00;;;;;;2280688;60;1483;-88
2023/07/24 05:14:35;394604.00;1.32;680.53;16009.00;0.05;28.36;;;;;21.40;1.00;;;;;;2280684;60;1490;-89
2023/07/24 05:17:03;308051.00;1.03;531.76;0.00;0.00;0.62;;;;;21.50;1.00;;;;;;2280614;60;1492;-88
2023/07/24 05:19:32;468216.00;1.56;807.12;0.00;0.00;0.62;;;;;21.90;1.00;;;;;;2280447;60;1491;-88
2023/07/24 05:22:00;146869.00;0.49;254.41;0.00;0.00;0.62;;;;;22.30;1.00;;;;;;2280775;60;1350;-88
2023/07/24 05:24:27;293606.00;0.98;506.93;2821.00;0.01;5.51;;;;;22.30;1.00;;;;;;2280514;60;1928;-88
2023/07/24 05:26:57;186856.00;0.62;323.30;33590.00;0.11;58.80;;;;;22.60;1.00;;;;;;2280655;60;2175;-88
2023/07/24 05:29:43;227484.00;0.76;393.22;0.00;0.00;0.62;;;;;22.40;1.00;;;;;;2280628;60;1587;-89
2023/07/24 05:32:18;574861.00;1.92;990.83;62659.00;0.21;109.07;;;;;22.60;1.00;;;;;;2280203;60;1598;-89
2023/07/24 05:35:05;336951.00;1.12;581.43;80007.00;0.27;139.05;;;;;23.00;1.00;;;;;;2280664;60;998;-87
2023/07/24 05:37:37;790045.00;2.63;1363.77;94897.00;0.32;164.76;;;;;23.40;1.00;;;;;;2280538;60;1599;-87
2023/07/24 05:40:08;450566.00;1.50;776.76;84688.00;0.28;147.13;;;;;23.80;1.00;;;;;;2280648;60;997;-86
2023/07/24 05:42:38;682156.00;2.27;1176.31;71002.00;0.24;123.49;;;;;23.60;1.00;;;;;;2280487;60;1600;-87
2023/07/24 05:45:15;363353.00;1.21;626.81;82206.00;0.27;142.85;;;;;23.10;1.00;;;;;;2280421;60;2013;-87
2023/07/24 05:47:45;1310976.00;4.37;2292.21;138160.00;0.46;239.40;;;;;22.80;1.00;;;;;;2280656;60;949;-87
2023/07/24 05:50:20;1133828.00;3.78;1971.03;129981.00;0.43;225.30;;;;;22.70;1.00;;;;;;2280353;60;1609;-87
2023/07/24 05:53:11;966460.00;3.22;1673.16;90905.00;0.30;157.87;;;;;22.50;1.00;;;;;;2280550;60;1277;-88
2023/07/24 05:56:05;777260.00;2.59;1341.49;0.00;0.00;0.62;;;;;22.50;1.00;;;;;;2280418;60;1094;-88
2023/07/24 05:58:42;271129.00;0.90;468.29;46343.00;0.15;80.86;;;;;22.20;1.00;;;;;;2280405;60;1551;-87
2023/07/24 06:01:17;194403.00;0.65;336.29;0.00;0.00;0.62;;;;;22.10;1.00;;;;;;2280435;60;1464;-88
2023/07/24 06:06:32;249955.00;0.83;431.87;21440.00;0.07;37.76;;;;;22.30;1.00;;;;;;2280553;60;1456;-87
2023/07/24 06:09:03;314735.00;1.05;543.25;0.00;0.00;0.62;;;;;22.30;1.00;;;;;;2280504;60;1613;-87
2023/07/24 06:11:43;204515.00;0.68;353.70;0.00;0.00;0.62;;;;;22.30;1.00;;;;;;2280565;60;1453;-87
2023/07/24 06:14:19;268986.00;0.90;464.60;0.00;0.00;0.62;;;;;22.30;1.00;;;;;;2280512;60;920;-87
2023/07/24 06:17:02;350526.00;1.17;604.77;0.00;0.00;0.62;;;;;22.40;1.00;;;;;;2280431;60;1621;-89
2023/07/24 06:19:43;351131.00;1.17;605.81;65164.00;0.22;113.40;;;;;22.50;1.00;;;;;;2280419;60;1533;-88
2023/07/24 06:22:22;;;;;;;;;;;;;;;;;;;;;
2023/07/24 06:24:56;550586.00;1.84;948.97;60606.00;0.20;105.52;;;;;22.90;1.00;;;;;;2280498;60;1918;-85
2023/07/24 06:27:25;1355220.00;4.52;2373.53;160405.00;0.53;277.74;;;;;22.90;1.00;;;;;;2280514;60;1549;-88
2023/07/24 06:30:12;1194717.00;3.98;2080.67;102825.00;0.34;178.45;;;;;23.00;1.00;;;;;;2280508;60;1568;-88
2023/07/24 06:32:43;1049515.00;3.50;1820.37;89790.00;0.30;155.95;;;;;23.00;1.00;;;;;;2280381;60;1551;-87
2023/07/24 06:35:14;1636016.00;5.45;2901.77;117760.00;0.39;204.22;;;;;23.30;1.00;;;;;;2279944;60;1541;-89
2023/07/24 06:37:41;1068791.00;3.56;1854.70;30132.00;0.10;52.81;;;;;23.40;1.00;;;;;;2280292;60;1137;-87
2023/07/24 06:40:13;1285654.00;4.29;2245.87;49320.00;0.16;86.01;;;;;23.50;1.00;;;;;;2280313;60;1529;-89
2023/07/24 06:42:40;1801122.00;6.00;3223.64;150483.00;0.50;260.64;;;;;23.40;1.00;;;;;;2280419;60;1465;-88
2023/07/24 06:45:13;458827.00;1.53;790.97;57179.00;0.19;99.60;;;;;23.50;1.00;;;;;;2280457;60;1926;-88
2023/07/24 06:47:42;109426.00;0.36;189.84;0.00;0.00;0.62;;;;;23.80;1.00;;;;;;2280489;60;1056;-90
2023/07/24 06:50:12;216169.00;0.72;373.75;0.00;0.00;0.62;;;;;23.80;1.00;;;;;;2280470;60;1507;-86
2023/07/24 06:52:39;208721.00;0.70;360.93;0.00;0.00;0.62;;;;;23.90;1.00;;;;;;2280460;60;1619;-90
2023/07/24 06:55:07;142610.00;0.48;247.07;0.00;0.00;0.62;;;;;24.00;1.00;;;;;;2280555;60;1023;-89
2023/07/24 06:57:37;242078.00;0.81;418.33;0.00;0.00;0.62;;;;;24.10;1.00;;;;;;2280432;60;1569;-87
2023/07/24 07:00:05;330254.00;1.10;569.92;1555.00;0.01;3.32;;;;;24.10;1.00;;;;;;2280488;60;1602;-89
2023/07/24 07:02:32;254144.00;0.85;439.08;0.00;0.00;0.62;;;;;24.50;1.00;;;;;;2280442;60;1274;-88
2023/07/24 07:04:59;175165.00;0.58;303.16;51289.00;0.17;89.42;;;;;24.60;1.00;;;;;;2280444;60;1919;-85
2023/07/24 07:15:09;2342385.00;7.81;4352.70;139169.00;0.46;241.14;;;;;25.10;1.00;;;;;;2278266;61;1157;-86
2023/07/24 07:17:38;861903.00;2.87;1489.31;114704.00;0.38;198.95;;;;;25.10;1.00;;;;;;2276355;61;1600;-86
2023/07/24 07:22:50;1183223.00;3.94;2059.92;68180.00;0.23;118.62;;;;;25.20;1.00;;;;;;2275933;61;1387;-85
2023/07/24 07:25:18;952493.00;3.17;1648.51;58579.00;0.20;102.02;;;;;25.50;1.00;;;;;;2276305;61;1988;-88
2023/07/24 07:27:54;1122320.00;3.74;1950.39;98582.00;0.33;171.12;;;;;25.70;1.00;;;;;;2276320;61;1471;-86
2023/07/24 07:30:22;820105.00;2.73;1416.21;148863.00;0.50;257.85;;;;;26.60;1.00;;;;;;2276268;61;1533;-86
2023/07/24 07:32:52;607408.00;2.02;1047.01;113907.00;0.38;197.57;;;;;27.30;1.00;;;;;;2276228;61;1506;-88
2023/07/24 07:35:19;362139.00;1.21;624.73;68401.00;0.23;119.00;;;;;28.00;1.00;;;;;;2276223;61;1478;-89
2023/07/24 07:37:46;329875.00;1.10;569.27;122279.00;0.41;212.01;;;;;27.80;1.00;;;;;;2276277;61;1658;-88
2023/07/24 07:40:19;228289.00;0.76;394.61;0.00;0.00;0.62;;;;;28.00;1.00;;;;;;2276342;61;1003;-86
2023/07/24 07:42:54;283062.00;0.94;488.80;0.00;0.00;0.62;;;;;27.80;1.00;;;;;;2276174;61;1760;-87
2023/07/24 07:45:32;214518.00;0.72;370.91;0.00;0.00;0.62;;;;;27.80;1.00;;;;;;2276250;61;2009;-87
2023/07/24 07:48:06;267822.00;0.89;462.60;20227.00;0.07;35.66;;;;;28.00;1.00;;;;;;2276318;61;1184;-89
2023/07/24 07:50:36;187896.00;0.63;325.09;31510.00;0.11;55.20;;;;;28.10;1.00;;;;;;2276309;61;1431;-89
2023/07/24 07:53:03;190435.00;0.63;329.46;0.00;0.00;0.62;;;;;28.50;1.00;;;;;;2276233;61;1462;-89
2023/07/24 07:55:32;236855.00;0.79;409.34;0.00;0.00;0.62;;;;;28.70;1.00;;;;;;2277016;61;922;-88
2023/07/24 07:58:01;190671.00;0.64;329.86;0.00;0.00;0.62;;;;;28.70;1.00;;;;;;2276928;61;1590;-90
2023/07/24 08:00:32;231385.00;0.77;399.93;10999.00;0.04;19.68;;;;;28.50;1.00;;;;;;2294826;56;3795;-88
2023/07/24 08:02:59;417932.00;1.39;720.63;72133.00;0.24;125.45;;;;;28.40;1.00;;;;;;2281059;60;1331;-88
2023/07/24 08:05:26;209744.00;0.70;362.69;0.00;0.00;0.62;;;;;28.10;1.00;;;;;;2280860;60;1914;-87
2023/07/24 08:07:53;223499.00;0.74;386.36;0.00;0.00;0.62;;;;;27.90;1.00;;;;;;2281056;60;1659;-88
2023/07/24 08:10:22;282285.00;0.94;487.47;0.00;0.00;0.62;;;;;27.90;1.00;;;;;;2281073;60;1565;-88
2023/07/24 08:12:53;172698.00;0.58;298.91;0.00;0.00;0.62;;;;;27.40;1.00;;;;;;2281022;60;1379;-89
2023/07/24 08:15:20;166739.00;0.56;288.65;0.00;0.00;0.62;;;;;27.40;1.00;;;;;;2280988;60;1552;-87
2023/07/24 08:17:49;276068.00;0.92;476.78;44916.00;0.15;78.39;;;;;27.30;1.00;;;;;;2281085;60;2318;-88
2023/07/24 08:20:23;163804.00;0.55;283.59;0.00;0.00;0.62;;;;;27.30;1.00;;;;;;2280977;60;1582;-88
2023/07/24 08:22:52;422823.00;1.41;729.04;52443.00;0.17;91.41;;;;;27.20;1.00;;;;;;2280879;60;1364;-87
2023/07/24 08:25:25;294436.00;0.98;508.36;0.00;0.00;0.62;;;;;27.20;1.00;;;;;;2280942;60;1986;-87
2023/07/24 08:27:52;229699.00;0.77;397.03;0.00;0.00;0.62;;;;;27.00;1.00;;;;;;2280967;60;1695;-88
2023/07/24 08:30:20;346433.00;1.15;597.73;63395.00;0.21;110.35;;;;;26.90;1.00;;;;;;2280928;60;1538;-87
2023/07/24 08:32:53;150454.00;0.50;260.59;0.00;0.00;0.62;;;;;26.90;1.00;;;;;;2280924;60;1463;-87
2023/07/24 08:35:20;712311.00;2.37;1228.59;244363.00;0.81;422.26;;;;;26.60;1.00;;;;;;2281005;60;1431;-87
2023/07/24 08:37:49;185652.00;0.62;321.22;0.00;0.00;0.62;;;;;26.70;1.00;;;;;;2280986;60;1075;-88
2023/07/24 08:40:17;196099.00;0.65;339.21;0.00;0.00;0.62;;;;;26.70;1.00;;;;;;2280943;60;1407;-88
2023/07/24 08:42:44;836992.00;2.79;1445.72;64307.00;0.21;111.92;;;;;26.70;1.00;;;;;;2280896;60;1279;-87
2023/07/24 08:45:13;1055408.00;3.52;1830.86;73208.00;0.24;127.30;;;;;26.70;1.00;;;;;;2280985;60;1996;-87
2023/07/24 08:47:43;413767.00;1.38;713.47;67343.00;0.22;117.17;;;;;26.80;1.00;;;;;;2280933;60;1054;-88
2023/07/24 08:50:16;251013.00;0.84;433.69;69989.00;0.23;121.74;;;;;26.70;1.00;;;;;;2280984;60;1231;-87
2023/07/24 08:52:46;437817.00;1.46;754.83;79880.00;0.27;138.83;;;;;26.70;1.00;;;;;;2280846;60;1628;-89
2023/07/24 08:55:23;278280.00;0.93;480.58;63574.00;0.21;110.65;;;;;26.60;1.00;;;;;;2280841;60;1025;-87
2023/07/24 08:57:50;605765.00;2.02;1044.18;128138.00;0.43;222.12;;;;;26.70;1.00;;;;;;2280860;60;1618;-87
2023/07/24 09:00:20;412720.00;1.38;711.67;65779.00;0.22;114.47;;;;;26.70;1.00;;;;;;2280786;60;1062;-89
2023/07/24 09:02:47;189716.00;0.63;328.22;0.00;0.00;0.62;;;;;26.60;1.00;;;;;;2280755;60;1486;-88
2023/07/24 09:05:23;388882.00;1.30;670.69;55983.00;0.19;97.53;;;;;26.80;1.00;;;;;;2280675;60;1909;-88
2023/07/24 09:07:53;203427.00;0.68;351.82;0.00;0.00;0.62;;;;;26.60;1.00;;;;;;2280789;60;1572;-87
2023/07/24 09:10:33;184858.00;0.62;319.86;0.00;0.00;0.62;;;;;27.00;1.00;;;;;;2280946;60;913;-88
2023/07/24 09:13:03;167034.00;0.56;289.16;12823.00;0.04;22.84;;;;;27.30;1.00;;;;;;2280675;60;1590;-88
2023/07/24 09:15:30;102592.00;0.34;178.05;0.00;0.00;0.62;;;;;27.60;1.00;;;;;;2280810;60;1543;-88
2023/07/24 09:17:59;184469.00;0.61;319.19;0.00;0.00;0.62;;;;;27.60;1.00;;;;;;2280819;60;1471;-87
2023/07/24 09:20:44;613114.00;2.04;1056.87;127461.00;0.42;220.95;;;;;28.00;1.00;;;;;;2280875;60;1101;-89
2023/07/24 09:23:13;239224.00;0.80;413.42;0.00;0.00;0.62;;;;;28.20;1.00;;;;;;2280794;60;1352;-89
2023/07/24 09:25:47;220927.00;0.74;381.94;0.00;0.00;0.62;;;;;28.30;1.00;;;;;;2280729;60;1997;-90
2023/07/24 09:30:55;555935.00;1.85;958.19;49220.00;0.16;85.84;;;;;27.90;1.00;;;;;;844632;59;1939;-89
2023/07/24 09:33:38;326984.00;1.09;564.30;0.00;0.00;0.62;;;;;27.60;1.00;;;;;;2281339;61;1434;-89
2023/07/24 09:41:13;1209072.00;4.03;2106.63;0.00;0.00;0.62;;;;;27.50;1.00;;;;;;2283694;55;3694;-87
2023/07/24 09:51:15;1358204.00;4.53;2379.03;123322.00;0.41;213.81;;;;;27.60;1.00;;;;;;2278354;61;1364;-90
2023/07/24 09:53:50;493489.00;1.64;850.61;80771.00;0.27;140.37;;;;;27.60;1.00;;;;;;2276512;61;1573;-89
2023/07/24 09:56:25;613086.00;2.04;1056.82;68494.00;0.23;119.16;;;;;27.60;1.00;;;;;;2276485;61;1620;-90
2023/07/24 09:58:55;179900.00;0.60;311.32;0.00;0.00;0.62;;;;;27.60;1.00;;;;;;2276552;61;1778;-88
2023/07/24 10:01:23;317580.00;1.06;548.14;43897.00;0.15;76.63;;;;;27.20;1.00;;;;;;2276567;61;1457;-89
2023/07/24 10:06:39;742981.00;2.48;1281.86;0.00;0.00;0.62;;;;;27.00;1.00;;;;;;1879723;40;3237;-88
2023/07/24 10:11:37;823603.00;2.75;1422.32;7469.00;0.02;13.56;;;;;26.90;1.00;;;;;;2277884;61;1414;-87
2023/07/24 10:16:42;638198.00;2.13;1100.22;0.00;0.00;0.62;;;;;26.60;1.00;;;;;;2284817;39;3501;-87
2023/07/24 10:19:15;1213431.00;4.04;2114.52;139377.00;0.46;241.50;;;;;26.30;1.00;;;;;;2280626;60;1594;-87
2023/07/24 10:24:13;2066027.00;6.89;3760.79;66792.00;0.22;116.22;;;;;25.60;1.00;;;;;;2282579;60;1359;-88
2023/07/24 10:31:54;2481361.00;8.27;4664.12;113845.00;0.38;197.46;;;;;25.60;1.00;;;;;;2170615;59;2090;-89
2023/07/24 10:39:21;1297114.00;4.32;2266.82;57713.00;0.19;100.52;;;;;25.00;1.00;;;;;;2281911;60;1236;-91
2023/07/24 10:41:49;270876.00;0.90;467.85;65337.00;0.22;113.70;;;;;24.70;1.00;;;;;;2280567;60;1293;-86
2023/07/24 10:44:17;377920.00;1.26;651.85;74468.00;0.25;129.48;;;;;24.40;1.00;;;;;;2280473;60;1007;-89
2023/07/24 11:21:50;997075.00;3.32;1727.29;64095.00;0.21;111.56;;;;;23.50;4.00;;;;;;2319986;56;3691;-85
2023/07/24 11:31:56;1252654.00;4.18;2185.71;70584.00;0.24;122.77;;;;;23.90;3.80;;;;;;2277755;61;1406;-87
2023/07/24 12:09:53;1104117.00;3.68;1917.79;60542.00;0.20;105.41;;;;;27.00;1.00;;;;;;1628929;55;3611;-90
2023/07/24 12:24:45;1286382.00;4.29;2247.20;68798.00;0.23;119.68;;;;;26.60;1.00;;;;;;2277595;61;1961;-90
2023/07/24 12:27:17;244519.00;0.82;422.52;54183.00;0.18;94.42;;;;;26.70;1.00;;;;;;2276012;61;1707;-90
2023/07/24 12:29:46;376751.00;1.26;649.84;70019.00;0.23;121.79;;;;;26.80;1.00;;;;;;2276220;61;1092;-89
2023/07/24 12:32:13;453950.00;1.51;782.58;63517.00;0.21;110.56;;;;;27.30;1.00;;;;;;2291702;40;3604;-91
2023/07/24 12:34:41;305994.00;1.02;528.22;64559.00;0.22;112.36;;;;;27.60;1.00;;;;;;2276034;61;1524;-91
2023/07/24 12:37:08;286760.00;0.96;495.16;48933.00;0.16;85.34;;;;;27.80;1.00;;;;;;2276163;61;1594;-90
2023/07/24 12:39:35;331203.00;1.10;571.55;63870.00;0.21;111.17;;;;;28.30;1.00;;;;;;2276267;61;1186;-90
2023/07/24 12:42:05;375570.00;1.25;647.81;64329.00;0.21;111.96;;;;;28.30;1.00;;;;;;2276874;61;2261;-90
2023/07/24 12:44:34;317773.00;1.06;548.47;45592.00;0.15;79.56;;;;;28.70;1.00;;;;;;2290607;39;3550;-89